createdAt,value
2019-03-29T00:02:21.293Z,96.30
2019-03-29T00:04:49.654Z,96.40
2019-03-29T00:07:18.144Z,96.50
2019-03-29T00:09:46.506Z,96.60
2019-03-29T00:12:14.812Z,96.80
2019-03-29T00:14:43.758Z,96.90
2019-03-29T00:17:12.072Z,97.00
2019-03-29T00:19:40.362Z,97.10
2019-03-29T00:22:08.677Z,97.20
2019-03-29T00:24:36.962Z,97.30
2019-03-29T00:27:05.345Z,97.40
2019-03-29T00:29:33.641Z,97.50
2019-03-29T00:32:01.949Z,97.60
2019-03-29T00:34:30.317Z,97.60
2019-03-29T00:36:58.704Z,97.80
2019-03-29T00:39:27.566Z,98.30
2019-03-29T00:41:56.147Z,98.00
2019-03-29T00:44:24.509Z,98.10
2019-03-29T00:46:52.864Z,98.10
2019-03-29T00:49:21.197Z,98.20
2019-03-29T00:51:50.365Z,98.20
2019-03-29T00:54:19.905Z,98.20
2019-03-29T00:56:48.197Z,98.50
2019-03-29T00:59:16.513Z,98.30
2019-03-29T01:01:44.877Z,98.30
2019-03-29T01:04:13.268Z,98.50
2019-03-29T01:06:41.552Z,98.80
2019-03-29T01:09:09.864Z,98.60
2019-03-29T01:11:38.225Z,98.60
2019-03-29T01:14:06.544Z,98.60
2019-03-29T01:16:34.900Z,98.80
2019-03-29T01:19:03.340Z,98.90
2019-03-29T01:21:32.271Z,99.00
2019-03-29T01:24:00.590Z,99.10
2019-03-29T01:26:28.957Z,99.10
2019-03-29T01:28:57.264Z,99.30
2019-03-29T01:31:25.564Z,99.20
2019-03-29T01:33:53.946Z,99.10
2019-03-29T01:36:22.308Z,99.00
2019-03-29T01:38:51.188Z,99.10
2019-03-29T01:41:19.543Z,99.30
2019-03-29T01:43:47.858Z,99.20
2019-03-29T01:46:16.160Z,99.30
2019-03-29T01:48:44.539Z,99.30
2019-03-29T01:51:12.920Z,99.10
2019-03-29T01:53:41.300Z,99.10
2019-03-29T01:56:09.660Z,99.30
2019-03-29T01:58:38.043Z,99.40
2019-03-29T02:01:06.328Z,99.60
2019-03-29T02:03:34.645Z,99.70
2019-03-29T02:06:02.933Z,99.80
2019-03-29T02:08:35.852Z,99.90
2019-03-29T02:11:01.252Z,99.90
2019-03-29T02:13:29.549Z,99.90
2019-03-29T02:15:57.933Z,99.90
2019-03-29T02:18:26.228Z,99.90
2019-03-29T02:20:54.622Z,99.90
2019-03-29T02:23:22.907Z,99.90
2019-03-29T02:25:51.220Z,99.90
2019-03-29T02:28:19.503Z,99.90
2019-03-29T02:30:47.812Z,99.90
2019-03-29T02:33:16.112Z,99.90
2019-03-29T02:35:44.501Z,99.90
2019-03-29T02:38:12.858Z,99.90
2019-03-29T02:40:41.248Z,99.90
2019-03-29T02:43:10.840Z,99.90
2019-03-29T02:45:39.613Z,99.90
2019-03-29T02:48:07.968Z,99.90
2019-03-29T02:50:36.864Z,99.90
2019-03-29T02:53:05.552Z,99.90
2019-03-29T02:55:34.119Z,99.90
2019-03-29T02:58:02.476Z,99.90
2019-03-29T03:00:30.785Z,99.90
2019-03-29T03:02:59.078Z,99.90
2019-03-29T03:05:27.470Z,99.90
2019-03-29T03:07:55.829Z,99.90
2019-03-29T03:10:24.217Z,99.90
2019-03-29T03:12:52.577Z,99.90
2019-03-29T03:15:20.900Z,99.90
2019-03-29T03:17:49.256Z,99.90
2019-03-29T03:20:17.725Z,99.90
2019-03-29T03:22:46.096Z,99.90
2019-03-29T03:25:14.469Z,99.90
2019-03-29T03:27:42.834Z,99.90
2019-03-29T03:30:11.797Z,99.90
2019-03-29T03:32:40.247Z,99.90
2019-03-29T03:35:08.978Z,99.90
2019-03-29T03:37:37.341Z,99.90
2019-03-29T03:40:06.760Z,99.90
2019-03-29T03:42:35.053Z,99.90
2019-03-29T03:45:04.820Z,99.90
2019-03-29T03:47:33.168Z,99.90
2019-03-29T03:50:01.915Z,99.90
2019-03-29T03:52:30.449Z,99.90
2019-03-29T03:54:58.838Z,99.90
2019-03-29T03:57:27.213Z,99.90
2019-03-29T03:59:55.576Z,99.90
2019-03-29T04:02:23.869Z,99.90
2019-03-29T04:04:52.162Z,99.90
2019-03-29T04:07:20.484Z,99.90
2019-03-29T04:09:50.558Z,99.90
2019-03-29T04:12:18.889Z,99.90
2019-03-29T04:14:47.411Z,99.90
2019-03-29T04:17:15.732Z,99.90
2019-03-29T04:19:44.036Z,99.90
2019-03-29T04:22:12.433Z,99.90
2019-03-29T04:24:40.785Z,99.90
2019-03-29T04:27:09.174Z,99.90
2019-03-29T04:29:37.563Z,99.90
2019-03-29T04:32:05.948Z,99.90
2019-03-29T04:34:34.330Z,99.90
2019-03-29T04:37:02.728Z,99.90
2019-03-29T04:39:31.088Z,99.90
2019-03-29T04:41:59.473Z,99.90
2019-03-29T04:44:27.771Z,99.90
2019-03-29T04:46:56.168Z,99.90
2019-03-29T04:49:24.542Z,99.90
2019-03-29T04:51:52.945Z,99.90
2019-03-29T04:54:21.308Z,99.90
2019-03-29T04:56:49.692Z,99.90
2019-03-29T04:59:18.057Z,99.90
2019-03-29T05:01:46.449Z,99.90
2019-03-29T05:04:14.809Z,99.90
2019-03-29T05:06:43.122Z,99.90
2019-03-29T05:09:11.494Z,99.90
2019-03-29T05:11:39.873Z,99.90
2019-03-29T05:14:08.237Z,99.90
2019-03-29T05:16:36.643Z,99.90
2019-03-29T05:19:05.023Z,99.90
2019-03-29T05:21:33.409Z,99.90
2019-03-29T05:24:01.709Z,99.90
2019-03-29T05:26:30.109Z,99.90
2019-03-29T05:28:58.475Z,99.90
2019-03-29T05:31:26.865Z,99.90
2019-03-29T05:33:55.160Z,99.90
2019-03-29T05:36:23.548Z,99.90
2019-03-29T05:38:51.841Z,99.90
2019-03-29T05:41:20.242Z,99.90
2019-03-29T05:43:48.606Z,99.90
2019-03-29T05:46:17.000Z,99.90
2019-03-29T05:48:45.370Z,99.90
2019-03-29T05:51:13.756Z,99.90
2019-03-29T05:53:42.048Z,98.90
2019-03-29T05:56:10.365Z,97.80
2019-03-29T05:58:38.746Z,97.30
2019-03-29T06:01:07.142Z,97.70
2019-03-29T06:03:35.510Z,98.20
2019-03-29T06:06:03.899Z,99.20
2019-03-29T06:08:32.266Z,99.50
2019-03-29T06:11:00.582Z,98.40
2019-03-29T06:13:29.018Z,98.10
2019-03-29T06:15:57.328Z,97.80
2019-03-29T06:18:25.697Z,96.00
2019-03-29T06:20:54.013Z,94.20
2019-03-29T06:23:22.309Z,92.60
2019-03-29T06:25:50.683Z,91.90
2019-03-29T06:28:19.073Z,93.40
2019-03-29T06:30:47.436Z,95.20
2019-03-29T06:33:15.831Z,95.90
2019-03-29T06:35:44.560Z,96.50
2019-03-29T06:38:12.953Z,95.70
2019-03-29T06:40:41.322Z,95.10
2019-03-29T06:43:09.728Z,90.40
2019-03-29T06:45:47.898Z,82.20
2019-03-29T06:48:08.141Z,79.70
2019-03-29T06:50:36.547Z,72.40
2019-03-29T06:53:04.917Z,71.40
2019-03-29T06:55:33.223Z,66.00
2019-03-29T06:58:01.621Z,63.40
2019-03-29T07:00:29.932Z,65.90
2019-03-29T07:02:58.394Z,64.50
2019-03-29T07:05:26.760Z,64.50
2019-03-29T07:07:55.077Z,64.00
2019-03-29T07:10:23.452Z,61.80
2019-03-29T07:12:51.780Z,58.80
2019-03-29T07:15:20.087Z,58.70
2019-03-29T07:17:48.479Z,63.40
2019-03-29T07:20:16.864Z,61.00
2019-03-29T07:22:45.271Z,57.80
2019-03-29T07:25:13.646Z,57.00
2019-03-29T07:27:46.743Z,53.60
2019-03-29T07:30:11.992Z,51.70
2019-03-29T07:32:40.317Z,52.20
2019-03-29T07:35:08.685Z,53.80
2019-03-29T07:37:37.087Z,50.40
2019-03-29T07:40:05.456Z,48.00
2019-03-29T07:42:33.846Z,49.50
2019-03-29T07:45:02.144Z,49.60
2019-03-29T07:47:30.538Z,53.20
2019-03-29T07:49:58.834Z,51.60
2019-03-29T07:52:27.244Z,49.70
2019-03-29T07:54:55.620Z,46.60
2019-03-29T07:57:24.004Z,44.40
2019-03-29T07:59:52.305Z,48.60
2019-03-29T08:02:20.622Z,44.70
2019-03-29T08:04:49.000Z,44.90
2019-03-29T08:07:27.260Z,44.50
2019-03-29T08:09:47.423Z,45.10
2019-03-29T08:12:15.852Z,43.70
2019-03-29T08:14:44.188Z,45.50
2019-03-29T08:17:12.580Z,42.40
2019-03-29T08:19:40.946Z,43.10
2019-03-29T08:22:09.267Z,45.20
2019-03-29T08:24:37.637Z,44.10
2019-03-29T08:27:06.605Z,44.00
2019-03-29T08:29:34.905Z,41.60
2019-03-29T08:32:03.220Z,40.80
2019-03-29T08:34:31.610Z,41.10
2019-03-29T08:37:00.003Z,40.20
2019-03-29T08:39:28.644Z,41.00
2019-03-29T08:42:00.448Z,38.20
2019-03-29T08:44:27.092Z,40.00
2019-03-29T08:46:55.388Z,42.40
2019-03-29T08:49:23.717Z,47.20
2019-03-29T08:51:52.093Z,45.80
2019-03-29T08:54:20.498Z,46.10
2019-03-29T08:56:48.863Z,49.90
2019-03-29T08:59:17.742Z,51.50
2019-03-29T09:01:46.260Z,56.30
2019-03-29T09:04:14.655Z,62.20
2019-03-29T09:06:53.360Z,64.10
2019-03-29T09:09:13.066Z,64.40
2019-03-29T09:11:41.509Z,56.90
2019-03-29T09:14:09.829Z,57.60
2019-03-29T09:16:38.210Z,60.60
2019-03-29T09:19:06.600Z,58.20
2019-03-29T09:21:34.969Z,55.10
2019-03-29T09:24:03.285Z,47.50
2019-03-29T09:26:31.574Z,41.10
2019-03-29T09:28:59.901Z,38.00
2019-03-29T09:31:28.203Z,38.90
2019-03-29T09:33:58.548Z,39.10
2019-03-29T09:36:26.604Z,37.20
2019-03-29T09:38:54.993Z,42.30
2019-03-29T09:41:23.357Z,44.00
2019-03-29T09:43:54.296Z,41.00
2019-03-29T09:46:21.789Z,40.40
2019-03-29T09:48:50.162Z,37.70
2019-03-29T09:51:18.513Z,38.50
2019-03-29T09:53:46.900Z,38.90
2019-03-29T09:56:15.265Z,36.60
2019-03-29T09:58:45.173Z,36.70
2019-03-29T10:01:13.778Z,39.80
2019-03-29T10:03:42.141Z,39.80
2019-03-29T10:06:10.513Z,44.40
2019-03-29T10:08:39.689Z,45.40
2019-03-29T10:11:08.060Z,44.00
2019-03-29T10:13:36.447Z,41.30
2019-03-29T10:16:04.818Z,38.70
2019-03-29T10:18:33.212Z,38.80
2019-03-29T10:21:01.587Z,39.40
2019-03-29T10:23:29.972Z,38.80
2019-03-29T10:25:58.698Z,39.20
2019-03-29T10:28:27.370Z,41.50
2019-03-29T10:30:55.737Z,45.40
2019-03-29T10:33:24.140Z,51.20
2019-03-29T10:35:53.151Z,50.70
2019-03-29T10:38:21.588Z,50.00
2019-03-29T10:40:49.993Z,49.30
2019-03-29T10:43:18.338Z,50.80
2019-03-29T10:45:46.707Z,52.00
2019-03-29T10:48:15.092Z,50.90
2019-03-29T10:50:43.385Z,48.50
2019-03-29T10:53:11.749Z,49.90
2019-03-29T10:55:40.141Z,53.20
2019-03-29T10:58:09.858Z,49.60
2019-03-29T11:00:39.314Z,47.40
2019-03-29T11:03:07.749Z,48.30
2019-03-29T11:05:36.141Z,49.10
2019-03-29T11:08:04.699Z,49.30
2019-03-29T11:10:35.385Z,46.70
2019-03-29T11:13:12.662Z,45.90
2019-03-29T11:15:33.945Z,47.20
2019-03-29T11:18:02.378Z,46.80
2019-03-29T11:20:30.787Z,45.30
2019-03-29T11:22:59.144Z,44.10
2019-03-29T11:25:27.452Z,43.20
2019-03-29T11:27:55.746Z,45.40
2019-03-29T11:30:41.230Z,46.40
2019-03-29T11:32:57.160Z,45.40
2019-03-29T11:35:25.474Z,46.40
2019-03-29T11:37:53.846Z,44.50
2019-03-29T11:40:23.473Z,43.90
2019-03-29T11:42:51.810Z,45.40
2019-03-29T11:45:20.197Z,46.60
2019-03-29T11:47:48.485Z,44.90
2019-03-29T11:50:16.791Z,45.00
2019-03-29T11:52:45.084Z,45.40
2019-03-29T11:55:13.483Z,46.20
2019-03-29T11:57:41.836Z,46.30
2019-03-29T12:00:11.986Z,44.30
2019-03-29T12:02:40.340Z,41.30
2019-03-29T12:05:08.652Z,43.00
2019-03-29T12:07:37.030Z,43.70
2019-03-29T12:10:05.939Z,42.80
2019-03-29T12:12:34.305Z,42.70
2019-03-29T12:15:02.709Z,42.80
2019-03-29T12:17:31.072Z,42.90
2019-03-29T12:19:59.471Z,42.40
2019-03-29T12:22:28.089Z,42.80
2019-03-29T12:24:56.484Z,45.10
2019-03-29T12:27:24.862Z,45.40
2019-03-29T12:29:53.240Z,44.40
2019-03-29T12:32:21.538Z,43.00
2019-03-29T12:34:49.870Z,43.90
2019-03-29T12:37:18.233Z,43.10
2019-03-29T12:39:46.555Z,43.50
2019-03-29T12:42:14.914Z,43.30
2019-03-29T12:44:43.303Z,44.70
2019-03-29T12:47:11.605Z,44.90
2019-03-29T12:49:39.900Z,45.60
2019-03-29T12:52:08.209Z,43.90
2019-03-29T12:54:36.586Z,42.80
2019-03-29T12:57:06.845Z,43.00
2019-03-29T12:59:35.040Z,42.00
2019-03-29T13:02:03.385Z,42.60
2019-03-29T13:04:31.749Z,43.20
2019-03-29T13:07:00.073Z,42.70
2019-03-29T13:09:28.364Z,41.80
2019-03-29T13:11:56.684Z,43.80
2019-03-29T13:14:24.988Z,43.60
2019-03-29T13:16:53.374Z,43.00
2019-03-29T13:19:21.744Z,43.20
2019-03-29T13:21:50.125Z,43.20
2019-03-29T13:24:18.579Z,42.90
2019-03-29T13:26:46.965Z,43.30
2019-03-29T13:29:15.364Z,41.40
2019-03-29T13:31:43.756Z,41.50
2019-03-29T13:34:12.123Z,41.40
2019-03-29T13:36:40.524Z,40.50
2019-03-29T13:39:08.893Z,41.20
2019-03-29T13:41:37.213Z,42.30
2019-03-29T13:44:05.522Z,43.00
2019-03-29T13:46:33.989Z,43.70
2019-03-29T13:49:02.284Z,43.80
2019-03-29T13:51:30.678Z,43.80
2019-03-29T13:53:59.054Z,44.50
2019-03-29T13:56:27.684Z,43.80
2019-03-29T13:58:56.069Z,43.90
2019-03-29T14:01:24.448Z,45.30
2019-03-29T14:03:52.821Z,44.70
2019-03-29T14:06:21.218Z,43.80
2019-03-29T14:08:49.585Z,42.90
2019-03-29T14:11:17.914Z,42.00
2019-03-29T14:13:46.353Z,43.20
2019-03-29T14:16:14.683Z,43.40
2019-03-29T14:18:43.050Z,43.30
2019-03-29T14:21:11.376Z,45.40
2019-03-29T14:23:39.673Z,43.90
2019-03-29T14:26:08.058Z,44.80
2019-03-29T14:28:36.362Z,44.70
2019-03-29T14:31:04.758Z,45.50
2019-03-29T14:33:33.124Z,45.70
2019-03-29T14:36:01.520Z,45.80
2019-03-29T14:38:29.825Z,45.70
2019-03-29T14:40:58.216Z,45.20
2019-03-29T14:43:26.508Z,45.40
2019-03-29T14:45:54.837Z,45.70
2019-03-29T14:48:23.196Z,45.30
2019-03-29T14:50:51.517Z,45.60
2019-03-29T14:53:19.893Z,45.70
2019-03-29T14:55:48.197Z,46.90
2019-03-29T14:58:16.595Z,45.70
2019-03-29T15:00:48.365Z,45.70
2019-03-29T15:03:15.169Z,45.80
2019-03-29T15:05:43.549Z,46.70
2019-03-29T15:08:11.946Z,46.30
2019-03-29T15:10:40.242Z,47.30
2019-03-29T15:13:08.638Z,48.20
2019-03-29T15:15:37.006Z,47.40
2019-03-29T15:18:05.329Z,47.50
2019-03-29T15:20:33.626Z,47.50
2019-03-29T15:23:02.022Z,47.40
2019-03-29T15:25:30.320Z,48.00
2019-03-29T15:27:58.713Z,48.50
2019-03-29T15:30:27.022Z,48.90
2019-03-29T15:32:55.421Z,50.20
2019-03-29T15:35:23.804Z,49.40
2019-03-29T15:37:52.138Z,50.00
2019-03-29T15:40:20.509Z,49.60
2019-03-29T15:42:48.913Z,49.60
2019-03-29T15:45:20.734Z,49.00
2019-03-29T15:47:47.263Z,49.50
2019-03-29T15:50:15.630Z,49.60
2019-03-29T15:52:43.948Z,49.30
2019-03-29T15:55:12.322Z,50.00
2019-03-29T15:57:40.722Z,50.50
2019-03-29T16:00:11.833Z,49.50
2019-03-29T16:02:40.153Z,50.60
2019-03-29T16:05:08.538Z,49.20
2019-03-29T16:07:36.936Z,49.50
2019-03-29T16:10:05.498Z,50.20
2019-03-29T16:12:33.894Z,50.60
2019-03-29T16:15:02.198Z,51.20
2019-03-29T16:17:30.592Z,50.40
2019-03-29T16:19:58.970Z,50.60
2019-03-29T16:22:27.361Z,50.90
2019-03-29T16:24:55.725Z,50.30
2019-03-29T16:27:25.227Z,50.30
2019-03-29T16:29:53.884Z,50.60
2019-03-29T16:32:22.345Z,51.10
2019-03-29T16:34:50.931Z,51.50
2019-03-29T16:37:19.324Z,51.40
2019-03-29T16:39:47.629Z,51.40
2019-03-29T16:42:16.014Z,52.30
2019-03-29T16:44:44.372Z,52.20
2019-03-29T16:47:12.769Z,52.50
2019-03-29T16:49:41.061Z,53.40
2019-03-29T16:52:09.433Z,52.60
2019-03-29T16:54:37.770Z,52.70
2019-03-29T16:57:06.137Z,53.30
2019-03-29T16:59:34.456Z,52.90
2019-03-29T17:02:02.825Z,53.50
2019-03-29T17:04:31.229Z,53.90
2019-03-29T17:06:59.597Z,54.20
2019-03-29T17:09:27.919Z,54.70
2019-03-29T17:11:56.287Z,55.10
2019-03-29T17:14:24.682Z,55.30
2019-03-29T17:16:53.180Z,56.00
2019-03-29T17:19:21.558Z,56.80
2019-03-29T17:21:49.922Z,56.70
2019-03-29T17:24:18.240Z,56.80
2019-03-29T17:26:46.546Z,57.00
2019-03-29T17:29:14.938Z,57.30
2019-03-29T17:31:43.230Z,57.90
2019-03-29T17:34:11.622Z,57.90
2019-03-29T17:36:39.942Z,58.40
2019-03-29T17:39:08.262Z,58.80
2019-03-29T17:41:36.647Z,59.10
2019-03-29T17:44:05.045Z,59.50
2019-03-29T17:46:33.412Z,60.40
2019-03-29T17:49:01.733Z,60.90
2019-03-29T17:51:30.097Z,61.20
2019-03-29T17:53:58.414Z,61.80
2019-03-29T17:56:26.789Z,62.20
2019-03-29T17:58:55.122Z,62.80
2019-03-29T18:01:23.489Z,63.50
2019-03-29T18:03:51.813Z,64.10
2019-03-29T18:06:20.186Z,64.60
2019-03-29T18:08:48.588Z,64.90
2019-03-29T18:11:16.961Z,65.80
2019-03-29T18:13:45.359Z,66.50
2019-03-29T18:16:13.746Z,67.00
2019-03-29T18:18:42.794Z,67.60
2019-03-29T18:21:11.174Z,68.40
2019-03-29T18:23:39.478Z,69.00
2019-03-29T18:26:07.876Z,69.60
2019-03-29T18:28:37.997Z,70.00
2019-03-29T18:31:06.209Z,70.50
2019-03-29T18:33:34.578Z,70.60
2019-03-29T18:36:02.892Z,70.90
2019-03-29T18:38:31.190Z,71.20
2019-03-29T18:40:59.594Z,71.80
2019-03-29T18:43:27.987Z,71.80
2019-03-29T18:45:56.372Z,72.10
2019-03-29T18:48:24.669Z,72.70
2019-03-29T18:50:53.001Z,73.10
2019-03-29T18:53:21.380Z,73.00
2019-03-29T18:55:49.694Z,73.70
2019-03-29T18:58:17.991Z,74.10
2019-03-29T19:00:46.376Z,74.40
2019-03-29T19:03:14.748Z,74.80
2019-03-29T19:05:43.131Z,75.10
2019-03-29T19:08:11.497Z,75.80
2019-03-29T19:10:39.817Z,75.70
2019-03-29T19:13:08.118Z,76.10
2019-03-29T19:15:36.509Z,76.90
2019-03-29T19:18:05.067Z,76.90
2019-03-29T19:20:33.421Z,76.80
2019-03-29T19:23:01.716Z,76.90
2019-03-29T19:25:30.112Z,77.20
2019-03-29T19:27:58.487Z,77.00
2019-03-29T19:30:26.875Z,76.80
2019-03-29T19:32:55.255Z,77.40
2019-03-29T19:35:23.635Z,78.00
2019-03-29T19:37:52.001Z,78.20
2019-03-29T19:40:20.399Z,79.00
2019-03-29T19:42:48.770Z,79.00
2019-03-29T19:45:17.163Z,78.80
2019-03-29T19:47:45.524Z,78.90
2019-03-29T19:50:14.616Z,79.10
2019-03-29T19:52:42.992Z,79.30
2019-03-29T19:55:11.353Z,79.60
2019-03-29T19:57:39.688Z,79.90
2019-03-29T20:00:11.011Z,79.70
2019-03-29T20:02:39.351Z,79.80
2019-03-29T20:05:13.786Z,80.00
2019-03-29T20:07:42.174Z,80.20
2019-03-29T20:10:10.559Z,80.00
2019-03-29T20:12:38.934Z,80.50
2019-03-29T20:15:07.249Z,80.30
2019-03-29T20:17:35.541Z,80.30
2019-03-29T20:20:05.678Z,80.50
2019-03-29T20:22:34.041Z,81.50
2019-03-29T20:25:02.352Z,82.00
2019-03-29T20:27:30.720Z,82.10
2019-03-29T20:29:59.111Z,82.10
2019-03-29T20:32:27.482Z,83.10
2019-03-29T20:34:55.873Z,83.90
2019-03-29T20:37:24.242Z,84.30
2019-03-29T20:39:52.640Z,84.70
2019-03-29T20:42:21.000Z,85.10
2019-03-29T20:44:49.378Z,85.20
2019-03-29T20:47:17.786Z,85.50
2019-03-29T20:49:46.196Z,85.10
2019-03-29T20:52:14.580Z,85.30
2019-03-29T20:54:42.882Z,84.40
2019-03-29T20:57:11.290Z,84.60
2019-03-29T20:59:39.653Z,84.70
2019-03-29T21:02:08.215Z,85.20
2019-03-29T21:04:36.590Z,84.80
2019-03-29T21:07:04.984Z,84.90
2019-03-29T21:09:33.354Z,84.90
2019-03-29T21:12:01.754Z,84.90
2019-03-29T21:14:30.117Z,85.40
2019-03-29T21:16:58.508Z,86.10
2019-03-29T21:19:26.969Z,86.90
2019-03-29T21:21:55.389Z,87.40
2019-03-29T21:24:23.756Z,88.00
2019-03-29T21:26:52.080Z,87.80
2019-03-29T21:29:20.465Z,87.70
2019-03-29T21:31:48.859Z,87.80
2019-03-29T21:34:17.258Z,88.20
2019-03-29T21:36:45.670Z,88.00
2019-03-29T21:39:14.207Z,87.80
2019-03-29T21:41:42.614Z,88.00
2019-03-29T21:44:11.011Z,88.20
2019-03-29T21:46:39.384Z,87.80
2019-03-29T21:49:07.829Z,87.90
2019-03-29T21:51:36.154Z,88.40
2019-03-29T21:54:04.450Z,88.50
2019-03-29T21:56:32.777Z,88.70
2019-03-29T21:59:01.157Z,89.50
2019-03-29T22:01:29.596Z,90.10
2019-03-29T22:03:57.996Z,89.80
2019-03-29T22:06:26.385Z,89.00
2019-03-29T22:08:54.677Z,89.20
2019-03-29T22:11:23.077Z,89.50
2019-03-29T22:13:51.608Z,89.60
2019-03-29T22:16:19.964Z,89.80
2019-03-29T22:18:48.333Z,90.10
2019-03-29T22:21:16.628Z,90.10
2019-03-29T22:23:45.032Z,90.60
2019-03-29T22:26:13.417Z,90.50
2019-03-29T22:28:41.742Z,90.30
2019-03-29T22:31:10.130Z,90.30
2019-03-29T22:33:38.529Z,90.00
2019-03-29T22:36:06.904Z,90.00
2019-03-29T22:38:35.221Z,90.10
2019-03-29T22:41:03.504Z,90.20
2019-03-29T22:43:31.830Z,90.20
2019-03-29T22:46:00.196Z,90.40
2019-03-29T22:48:28.597Z,90.30
2019-03-29T22:50:56.893Z,90.20
2019-03-29T22:53:25.328Z,90.30
2019-03-29T22:55:53.658Z,90.50
2019-03-29T22:58:22.045Z,90.60
2019-03-29T23:00:52.524Z,91.00
2019-03-29T23:03:20.914Z,90.70
2019-03-29T23:05:49.272Z,91.10
2019-03-29T23:08:17.598Z,91.10
2019-03-29T23:10:45.968Z,91.40
2019-03-29T23:13:14.294Z,91.30
2019-03-29T23:15:42.660Z,91.40
2019-03-29T23:18:10.999Z,91.50
2019-03-29T23:20:39.379Z,91.60
2019-03-29T23:23:07.765Z,91.70
2019-03-29T23:25:36.217Z,91.80
2019-03-29T23:28:04.606Z,91.80
2019-03-29T23:30:32.902Z,92.00
2019-03-29T23:33:01.296Z,92.00
2019-03-29T23:35:29.662Z,92.30
2019-03-29T23:37:58.067Z,92.40
2019-03-29T23:40:26.355Z,92.30
2019-03-29T23:42:54.676Z,92.30
2019-03-29T23:45:22.968Z,92.10
2019-03-29T23:47:51.366Z,92.30
2019-03-29T23:50:19.742Z,92.20
2019-03-29T23:52:48.129Z,92.30
2019-03-29T23:55:16.520Z,92.50
2019-03-29T23:57:44.834Z,92.70
